Time;durP1;ratioP1;P1;durP2;ratioP2;P2;SDS_P1;SDS_P2;PMS_P1;PMS_P2;Temp;Humidity;BMP_temperature;BMP_pressure;BME280_temperature;BME280_humidity;BME280_pressure;Samples;Min_cycle;Max_cycle;Signal;HPM_P1;HPM_P2
2021/12/17 00:05:04;;;;;;;17.70;8.60;;;;;;;4.25;83.80;99694.87;103823;1322;22612;-86
2021/12/17 00:07:35;;;;;;;16.00;7.90;;;;;;;4.24;83.90;99694.97;103925;1318;138742;-88
2021/12/17 00:10:14;;;;;;;13.20;7.50;;;;;;;4.26;83.93;99686.10;103932;1319;22587;-88
2021/12/17 00:12:42;;;;;;;14.60;7.70;;;;;;;4.27;84.06;99684.56;103938;1319;138198;-87
2021/12/17 00:15:10;;;;;;;14.60;7.50;;;;;;;4.27;84.16;99675.18;104195;1319;22573;-88
2021/12/17 00:17:38;;;;;;;22.50;8.60;;;;;;;4.26;84.10;99678.76;103470;1326;23051;-88
2021/12/17 00:53:27;;;;;;;20.80;7.90;;;;;;;4.13;84.74;99691.99;103680;1323;22590;-88
2021/12/17 00:55:55;;;;;;;17.40;7.80;;;;;;;4.12;84.77;99689.59;104083;1316;137626;-88
2021/12/17 00:58:22;;;;;;;17.90;7.70;;;;;;;4.11;84.89;99689.02;103614;1322;25653;-85
2021/12/17 01:00:50;;;;;;;15.20;9.00;;;;;;;4.09;84.78;99686.39;103592;1321;137949;-87
2021/12/17 01:03:17;;;;;;;17.20;6.90;;;;;;;4.10;84.77;99683.63;103772;1325;22587;-88
2021/12/17 01:05:45;;;;;;;16.20;7.30;;;;;;;4.10;84.67;99683.96;103547;1323;22747;-85
2021/12/17 01:08:13;;;;;;;16.60;6.50;;;;;;;4.10;84.74;99688.27;103430;1321;137653;-88
2021/12/17 01:10:48;;;;;;;17.50;7.30;;;;;;;4.09;84.83;99688.41;103661;1325;22593;-89
2021/12/17 01:13:36;;;;;;;17.10;7.10;;;;;;;4.07;84.63;99684.48;103750;1318;137455;-87
2021/12/17 01:16:22;;;;;;;16.70;7.00;;;;;;;4.07;84.71;99688.25;103909;1321;25239;-88
2021/12/17 01:24:55;;;;;;;12.30;6.30;;;;;;;4.07;84.83;99682.66;103767;1319;137670;-88
2021/12/17 01:36:40;;;;;;;14.80;6.40;;;;;;;4.04;84.65;99682.49;103430;1319;138041;-89
2021/12/17 01:44:19;;;;;;;15.10;5.90;;;;;;;3.97;84.37;99685.67;103466;1318;137754;-87
2021/12/17 01:46:50;;;;;;;9.70;5.20;;;;;;;3.96;84.33;99681.16;103647;1316;22564;-86
2021/12/17 02:00:44;;;;;;;11.80;5.20;;;;;;;3.93;83.83;99661.02;103646;1323;137693;-87
2021/12/17 02:03:14;;;;;;;14.00;5.60;;;;;;;3.92;83.74;99661.13;103943;1319;22648;-89
2021/12/17 02:05:43;;;;;;;14.90;6.20;;;;;;;3.92;83.85;99655.73;103545;1324;22912;-89
2021/12/17 02:08:23;;;;;;;16.80;7.40;;;;;;;3.92;83.79;99653.73;103539;1323;138372;-87
2021/12/17 02:30:48;;;;;;;8.00;4.40;;;;;;;3.71;82.54;99645.72;103056;1325;22624;-87
2021/12/17 02:32:57;;;;;;;13.60;5.50;;;;;;;3.70;82.49;99642.21;103102;1319;137815;-86
2021/12/17 02:35:38;;;;;;;11.50;5.10;;;;;;;3.69;82.63;99640.06;103565;1320;25363;-87
2021/12/17 02:38:08;;;;;;;12.90;5.00;;;;;;;3.68;82.76;99641.63;103722;1318;137390;-87
2021/12/17 02:47:05;;;;;;;12.80;5.10;;;;;;;3.61;82.52;99645.91;103522;1318;25329;-86
2021/12/17 02:49:34;;;;;;;12.50;4.80;;;;;;;3.59;82.52;99654.12;103303;1318;137601;-88
2021/12/17 02:52:04;;;;;;;9.80;4.70;;;;;;;3.58;82.82;99651.06;103391;1318;24126;-86
2021/12/17 02:54:34;;;;;;;13.90;4.30;;;;;;;3.57;82.48;99652.56;103369;1319;25534;-87
2021/12/17 02:57:02;;;;;;;9.90;4.20;;;;;;;3.56;81.96;99646.45;103160;1321;137563;-90
2021/12/17 02:59:32;;;;;;;9.60;3.90;;;;;;;3.54;82.32;99649.41;103522;1319;22595;-87
2021/12/17 03:02:22;;;;;;;11.00;4.20;;;;;;;3.52;82.24;99656.41;103509;1317;137413;-85
2021/12/17 03:04:50;;;;;;;10.50;3.90;;;;;;;3.51;82.21;99656.43;103490;1319;22627;-85
2021/12/17 03:07:17;;;;;;;6.80;4.00;;;;;;;3.50;81.93;99657.73;103271;1319;138483;-87
2021/12/17 03:10:03;;;;;;;10.30;4.50;;;;;;;3.48;82.00;99657.54;103291;1321;22649;-88
2021/12/17 03:12:45;;;;;;;11.00;4.60;;;;;;;3.48;82.21;99657.80;103835;1319;22572;-91
2021/12/17 03:23:32;;;;;;;10.90;4.50;;;;;;;3.41;82.21;99663.48;103712;1319;22629;-88
2021/12/17 03:26:04;;;;;;;9.20;4.50;;;;;;;3.39;82.09;99658.52;103371;1316;138062;-86
2021/12/17 03:28:33;;;;;;;12.50;4.20;;;;;;;3.38;81.73;99652.75;103449;1319;24320;-87
2021/12/17 03:31:02;;;;;;;16.80;5.10;;;;;;;3.37;82.07;99653.35;103613;1316;138140;-87
2021/12/17 03:33:31;;;;;;;14.20;5.10;;;;;;;3.36;81.72;99645.84;103379;1319;23414;-86
2021/12/17 03:35:58;;;;;;;13.80;4.40;;;;;;;3.34;81.67;99639.94;103332;1322;22584;-86
2021/12/17 03:38:30;;;;;;;9.50;3.90;;;;;;;3.34;81.94;99644.98;103243;1319;138620;-87
2021/12/17 03:41:13;;;;;;;14.80;5.80;;;;;;;3.33;81.86;99650.75;103396;1323;22623;-88
2021/12/17 03:43:49;;;;;;;13.30;5.80;;;;;;;3.33;81.87;99657.64;103307;1320;137330;-87
2021/12/17 03:46:21;;;;;;;11.30;3.80;;;;;;;3.30;81.68;99661.85;103271;1319;24384;-87
2021/12/17 03:48:52;;;;;;;12.30;4.50;;;;;;;3.31;81.76;99659.86;103512;1319;138422;-87
2021/12/17 03:51:46;;;;;;;12.50;4.90;;;;;;;3.32;81.91;99658.85;103418;1318;24384;-86
2021/12/17 03:54:29;;;;;;;11.70;5.00;;;;;;;3.31;81.75;99659.26;103781;1318;22654;-87
2021/12/17 03:56:57;;;;;;;13.50;4.90;;;;;;;3.29;82.00;99658.98;103543;1319;139590;-88
2021/12/17 03:59:25;;;;;;;12.60;4.80;;;;;;;3.28;82.19;99659.98;103446;1322;23369;-88
2021/12/17 04:01:52;;;;;;;8.80;5.00;;;;;;;3.27;82.25;99653.84;103310;1320;137794;-86
2021/12/17 04:04:19;;;;;;;11.90;5.10;;;;;;;3.25;82.33;99653.77;103346;1323;22932;-87
2021/12/17 04:06:48;;;;;;;13.90;5.80;;;;;;;3.24;82.34;99654.27;103603;1319;22815;-87
2021/12/17 04:09:36;;;;;;;16.90;5.40;;;;;;;3.22;82.31;99650.52;103118;1325;25534;-87
2021/12/17 04:12:13;;;;;;;10.20;4.40;;;;;;;3.22;82.28;99653.40;103403;1322;22565;-86
2021/12/17 04:15:16;;;;;;;14.60;5.20;;;;;;;3.21;81.96;99653.36;103328;1322;137787;-87
2021/12/17 04:17:48;;;;;;;12.10;4.90;;;;;;;3.18;82.21;99650.37;103202;1325;25364;-87
2021/12/17 04:20:15;;;;;;;10.10;5.20;;;;;;;3.17;82.09;99645.36;103334;1325;137943;-87
2021/12/17 04:22:42;;;;;;;16.80;5.80;;;;;;;3.17;82.32;99648.59;103690;1322;22584;-86
2021/12/17 04:25:09;;;;;;;11.40;5.90;;;;;;;3.18;82.08;99645.80;103299;1319;23928;-89
2021/12/17 04:27:37;;;;;;;10.90;4.90;;;;;;;3.18;82.22;99644.65;103354;1319;137160;-86
2021/12/17 04:30:10;;;;;;;10.50;5.10;;;;;;;3.17;82.16;99640.11;103661;1319;23829;-88
2021/12/17 04:32:39;;;;;;;12.70;5.50;;;;;;;3.15;82.44;99636.91;103188;1319;137817;-86
2021/12/17 04:35:07;;;;;;;13.10;6.20;;;;;;;3.15;81.98;99637.13;103429;1325;22719;-86
2021/12/17 04:37:40;;;;;;;10.10;5.00;;;;;;;3.17;81.98;99634.39;103117;1326;138259;-87
2021/12/17 04:40:08;;;;;;;12.00;5.00;;;;;;;3.18;82.07;99632.17;103618;1322;22722;-86
2021/12/17 04:45:15;;;;;;;9.30;4.80;;;;;;;3.14;81.52;99630.42;103570;1319;138866;-86
2021/12/17 04:59:08;;;;;;;11.00;4.50;;;;;;;3.09;80.58;99637.78;103311;1323;22627;-88
2021/12/17 05:01:36;;;;;;;9.30;3.80;;;;;;;3.09;80.71;99628.09;103363;1323;138524;-86
2021/12/17 05:04:03;;;;;;;10.20;4.60;;;;;;;3.09;80.51;99617.94;103357;1321;22595;-86
2021/12/17 05:06:32;;;;;;;8.80;4.90;;;;;;;3.08;80.75;99619.11;103630;1320;22594;-86
2021/12/17 05:09:07;;;;;;;16.40;5.50;;;;;;;3.05;80.91;99619.92;103333;1316;137443;-86
2021/12/17 05:19:53;;;;;;;9.30;3.50;;;;;;;3.01;80.77;99617.45;103435;1322;137445;-85
2021/12/17 05:22:23;;;;;;;17.70;7.70;;;;;;;3.00;80.73;99622.64;103510;1319;25531;-87
2021/12/17 05:24:50;;;;;;;20.90;6.20;;;;;;;3.00;80.82;99620.24;103528;1322;23274;-86
2021/12/17 05:27:18;;;;;;;12.90;5.70;;;;;;;3.01;80.84;99623.54;103056;1319;138962;-86
2021/12/17 05:29:56;;;;;;;15.30;5.30;;;;;;;3.03;80.71;99626.61;103266;1326;22558;-87
2021/12/17 05:32:23;;;;;;;12.70;6.30;;;;;;;3.03;80.34;99621.56;103402;1320;137451;-87
2021/12/17 05:34:52;;;;;;;13.90;5.00;;;;;;;3.02;80.69;99605.38;103410;1324;22809;-86
2021/12/17 05:37:19;;;;;;;8.50;4.00;;;;;;;3.01;80.80;99601.82;103595;1321;139967;-86
2021/12/17 05:39:46;;;;;;;9.80;4.20;;;;;;;3.01;80.28;99608.17;103944;1319;24359;-87
2021/12/17 05:42:14;;;;;;;13.90;5.10;;;;;;;3.01;80.39;99622.64;103523;1319;24309;-87
2021/12/17 05:44:58;;;;;;;11.90;4.60;;;;;;;3.00;80.36;99616.85;103464;1319;137778;-87
2021/12/17 05:47:25;;;;;;;15.40;5.80;;;;;;;2.99;80.12;99609.46;103574;1320;22594;-87
2021/12/17 05:49:53;;;;;;;11.90;4.90;;;;;;;2.97;79.95;99618.77;103461;1319;138297;-86
2021/12/17 05:52:20;;;;;;;8.50;4.50;;;;;;;2.97;79.68;99617.92;103263;1322;22592;-86
2021/12/17 05:54:48;;;;;;;8.90;4.20;;;;;;;2.96;79.87;99617.00;103798;1319;22597;-87
2021/12/17 05:57:15;;;;;;;9.90;4.70;;;;;;;2.94;79.76;99610.13;103547;1322;137311;-88
2021/12/17 05:59:43;;;;;;;17.70;5.50;;;;;;;2.93;79.91;99605.63;103872;1320;22586;-86
2021/12/17 06:02:13;;;;;;;14.20;4.50;;;;;;;2.93;79.74;99612.06;103821;1319;137829;-86
2021/12/17 06:04:43;;;;;;;13.10;4.70;;;;;;;2.94;80.15;99609.88;103768;1323;22825;-87
2021/12/17 06:07:11;;;;;;;13.50;5.70;;;;;;;2.93;80.31;99609.09;103155;1319;22935;-87
2021/12/17 06:09:40;;;;;;;10.20;4.30;;;;;;;2.93;80.56;99619.84;103291;1319;137323;-88
2021/12/17 06:12:11;;;;;;;13.60;5.70;;;;;;;2.93;80.43;99634.14;103404;1324;22588;-88
2021/12/17 06:14:39;;;;;;;11.70;5.10;;;;;;;2.94;80.41;99631.52;103198;1318;138318;-88
2021/12/17 06:17:06;;;;;;;8.80;4.80;;;;;;;2.95;80.73;99634.84;103552;1319;24320;-87
2021/12/17 06:19:47;;;;;;;13.40;6.10;;;;;;;2.95;80.74;99635.52;103643;1317;137360;-87
2021/12/17 06:22:15;;;;;;;14.10;5.00;;;;;;;2.95;80.70;99640.23;103641;1325;22639;-87
2021/12/17 06:24:57;;;;;;;14.00;4.70;;;;;;;2.92;80.43;99647.19;103461;1322;24429;-86
2021/12/17 06:27:39;;;;;;;12.20;4.60;;;;;;;2.89;80.21;99647.55;103222;1320;138000;-86
2021/12/17 06:30:10;;;;;;;11.40;4.30;;;;;;;2.85;79.78;99645.02;103520;1324;22698;-86
2021/12/17 06:32:37;;;;;;;14.90;6.00;;;;;;;2.83;79.78;99647.27;103714;1319;137550;-88
2021/12/17 06:35:06;;;;;;;10.70;4.50;;;;;;;2.81;79.81;99646.59;103387;1326;22719;-86
2021/12/17 06:37:34;;;;;;;12.10;4.50;;;;;;;2.79;79.95;99653.73;103389;1319;137821;-84
2021/12/17 06:40:05;;;;;;;10.90;4.30;;;;;;;2.78;79.85;99658.48;103465;1319;24422;-88
2021/12/17 06:42:33;;;;;;;14.70;5.10;;;;;;;2.78;80.04;99650.77;103526;1319;22877;-87
2021/12/17 06:45:05;;;;;;;12.10;4.80;;;;;;;2.79;79.82;99652.13;103240;1324;137825;-86
2021/12/17 06:47:35;;;;;;;11.20;4.80;;;;;;;2.80;80.01;99653.30;103811;1319;22576;-87
2021/12/17 06:56:47;;;;;;;13.50;4.80;;;;;;;2.79;80.25;99648.88;103761;1319;138282;-88
2021/12/17 07:10:41;;;;;;;9.90;4.60;;;;;;;2.80;79.92;99641.08;103496;1322;22563;-87
2021/12/17 07:32:51;;;;;;;9.90;4.20;;;;;;;2.70;79.72;99642.94;103204;1322;137719;-88
2021/12/17 07:35:37;;;;;;;12.50;4.00;;;;;;;2.69;79.64;99638.60;103383;1317;23934;-89
2021/12/17 07:40:51;;;;;;;14.50;4.50;;;;;;;2.72;79.71;99626.62;103340;1323;22599;-88
2021/12/17 07:43:26;;;;;;;10.90;4.10;;;;;;;2.73;79.97;99626.11;103561;1322;22715;-89
2021/12/17 07:45:55;;;;;;;13.10;5.50;;;;;;;2.74;80.09;99627.78;102973;1319;137310;-88
2021/12/17 07:48:27;;;;;;;14.70;4.20;;;;;;;2.77;79.97;99631.92;103466;1323;22773;-88
2021/12/17 07:51:05;;;;;;;10.60;4.10;;;;;;;2.80;79.96;99626.36;103162;1326;137973;-87
2021/12/17 07:53:52;;;;;;;15.50;5.00;;;;;;;2.83;79.88;99625.85;103686;1319;22577;-87
2021/12/17 07:56:25;;;;;;;10.80;4.00;;;;;;;2.85;79.75;99624.06;103530;1322;137707;-88
2021/12/17 07:58:57;;;;;;;11.40;4.70;;;;;;;2.87;79.61;99623.00;103521;1319;23398;-88
2021/12/17 08:01:25;;;;;;;14.70;3.90;;;;;;;2.90;79.76;99623.95;103294;1325;22577;-87
2021/12/17 08:03:53;;;;;;;15.80;3.90;;;;;;;2.90;79.45;99626.90;103576;1325;137956;-89
2021/12/17 08:06:38;;;;;;;14.00;3.60;;;;;;;2.93;79.78;99621.60;104050;1322;23488;-90
2021/12/17 08:09:15;;;;;;;9.60;3.40;;;;;;;2.97;79.67;99624.75;103267;1325;138083;-89
2021/12/17 08:11:43;;;;;;;9.50;3.70;;;;;;;3.01;79.65;99618.04;103547;1325;23164;-88
2021/12/17 08:14:15;;;;;;;13.60;4.60;;;;;;;3.04;79.49;99622.91;103797;1322;137422;-90
2021/12/17 08:16:51;;;;;;;13.00;4.90;;;;;;;3.08;79.84;99624.16;103724;1324;23412;-89
2021/12/17 08:25:27;;;;;;;13.40;3.50;;;;;;;3.16;79.69;99643.00;103879;1322;22684;-90
2021/12/17 08:28:05;;;;;;;8.00;3.90;;;;;;;3.21;79.59;99643.88;103679;1319;138153;-87
2021/12/17 08:30:40;;;;;;;8.20;3.10;;;;;;;3.24;79.01;99649.66;103828;1323;25435;-88
2021/12/17 08:33:13;;;;;;;13.80;4.30;;;;;;;3.25;78.91;99647.38;103658;1322;137623;-89
2021/12/17 08:35:40;;;;;;;11.00;4.40;;;;;;;3.26;78.93;99646.77;103751;1322;24408;-89
2021/12/17 08:38:13;;;;;;;13.60;3.90;;;;;;;3.26;78.92;99650.09;103551;1322;137945;-90
2021/12/17 08:40:43;;;;;;;9.70;3.30;;;;;;;3.28;78.88;99643.60;103969;1321;25407;-88
2021/12/17 08:43:11;;;;;;;12.20;4.30;;;;;;;3.28;78.97;99645.80;103595;1321;22296;-88
2021/12/17 08:45:43;;;;;;;15.20;3.80;;;;;;;3.30;79.10;99655.78;103596;1319;138172;-89
2021/12/17 08:48:29;;;;;;;9.00;4.30;;;;;;;3.33;78.86;99657.96;103910;1320;22625;-89
2021/12/17 08:51:23;;;;;;;10.30;4.10;;;;;;;3.33;78.72;99667.09;103768;1320;137318;-88
2021/12/17 08:53:50;;;;;;;20.20;5.40;;;;;;;3.32;78.35;99668.14;103618;1319;22573;-87
2021/12/17 08:56:22;;;;;;;;;;;;;;;3.30;78.63;99666.70;103501;1323;137875;-88
2021/12/17 08:58:53;;;;;;;10.00;3.80;;;;;;;3.32;78.65;99674.20;103898;1326;25422;-88
2021/12/17 09:01:21;;;;;;;14.60;4.60;;;;;;;3.33;78.65;99679.27;103523;1325;23996;-88
2021/12/17 09:03:48;;;;;;;11.50;4.10;;;;;;;3.33;78.46;99684.50;103205;1322;137685;-88
2021/12/17 09:06:37;;;;;;;9.40;3.90;;;;;;;3.34;78.85;99683.02;103187;1316;22704;-89
2021/12/17 09:09:05;;;;;;;9.40;3.70;;;;;;;3.34;79.04;99683.52;103187;1322;137918;-88
2021/12/17 09:11:34;;;;;;;11.10;3.80;;;;;;;3.38;79.09;99678.46;103133;1316;25662;-89
2021/12/17 09:14:06;;;;;;;11.90;4.00;;;;;;;3.42;79.07;99682.48;103275;1322;139969;-89
2021/12/17 09:16:41;;;;;;;10.70;4.40;;;;;;;3.45;78.65;99680.33;103594;1324;25625;-88
2021/12/17 09:19:10;;;;;;;14.20;4.80;;;;;;;3.46;78.35;99683.08;103549;1325;25370;-88
2021/12/17 09:21:50;;;;;;;11.90;4.00;;;;;;;3.45;78.00;99676.02;103315;1319;137777;-87
2021/12/17 09:24:50;;;;;;;13.60;3.70;;;;;;;3.45;78.46;99677.11;103487;1319;25369;-83
2021/12/17 09:27:20;;;;;;;14.10;4.20;;;;;;;3.51;78.06;99674.53;103330;1319;137676;-86
2021/12/17 09:30:20;;;;;;;11.50;4.10;;;;;;;3.53;77.55;99672.84;103820;1321;22570;-87
2021/12/17 09:32:47;;;;;;;11.60;4.30;;;;;;;3.52;77.45;99660.89;103208;1318;137654;-87
2021/12/17 09:35:15;;;;;;;12.20;3.70;;;;;;;3.51;77.40;99659.17;103476;1323;23117;-89
2021/12/17 09:37:43;;;;;;;18.60;5.30;;;;;;;3.52;77.49;99657.19;103157;1320;22668;-88
2021/12/17 09:40:12;;;;;;;13.60;3.90;;;;;;;3.52;77.67;99652.78;103431;1319;139417;-86
2021/12/17 09:42:42;;;;;;;11.00;4.00;;;;;;;3.54;77.37;99655.14;103305;1326;22597;-89
2021/12/17 09:45:11;;;;;;;10.70;3.70;;;;;;;3.54;77.44;99656.20;103377;1319;138059;-87
2021/12/17 09:47:39;;;;;;;15.80;4.00;;;;;;;3.53;77.43;99651.50;103442;1322;24446;-89
2021/12/17 09:50:09;;;;;;;12.90;5.30;;;;;;;3.54;77.28;99652.81;103390;1322;137825;-89
2021/12/17 09:52:36;;;;;;;13.90;4.70;;;;;;;3.57;77.58;99648.15;103693;1322;31780;-88
2021/12/17 09:55:05;;;;;;;9.80;3.70;;;;;;;3.61;77.84;99640.13;103890;1318;22660;-87
2021/12/17 09:57:36;;;;;;;9.80;3.60;;;;;;;3.62;76.91;99635.02;103313;1322;137304;-86
2021/12/17 10:00:11;;;;;;;13.60;4.00;;;;;;;3.63;76.39;99636.54;103526;1319;24404;-87
2021/12/17 10:02:46;;;;;;;16.10;3.40;;;;;;;3.62;76.80;99630.52;103431;1320;137906;-87
2021/12/17 10:05:17;;;;;;;13.30;4.40;;;;;;;3.65;76.87;99633.88;103590;1319;25226;-87
2021/12/17 10:07:45;;;;;;;14.00;4.40;;;;;;;3.67;76.92;99634.61;103400;1317;22703;-86
2021/12/17 10:10:13;;;;;;;7.90;3.80;;;;;;;3.73;76.93;99638.88;103481;1320;137381;-89
2021/12/17 10:12:40;;;;;;;11.80;4.00;;;;;;;3.73;76.10;99636.85;103387;1321;22732;-87
2021/12/17 10:15:21;;;;;;;10.40;4.00;;;;;;;3.73;75.92;99623.73;103289;1316;137620;-87
2021/12/17 10:18:03;;;;;;;14.10;4.70;;;;;;;3.73;75.74;99626.05;103519;1317;22657;-89
2021/12/17 10:20:40;;;;;;;10.70;3.70;;;;;;;3.72;75.71;99629.00;103634;1326;138675;-86
2021/12/17 10:23:10;;;;;;;17.30;5.00;;;;;;;3.71;75.25;99630.30;103461;1321;23273;-86
2021/12/17 10:25:42;;;;;;;11.80;3.60;;;;;;;3.70;75.97;99619.25;103551;1319;22587;-87
2021/12/17 10:28:10;;;;;;;10.90;3.70;;;;;;;3.71;76.11;99622.01;103542;1320;137462;-87
2021/12/17 10:30:40;;;;;;;8.70;3.90;;;;;;;3.71;75.64;99611.56;103520;1319;25422;-90
2021/12/17 10:33:10;;;;;;;10.00;4.20;;;;;;;3.73;75.82;99611.02;103596;1321;137726;-87
2021/12/17 10:35:43;;;;;;;10.00;4.40;;;;;;;3.74;75.89;99617.50;103452;1325;23537;-87
2021/12/17 10:38:12;;;;;;;16.20;5.00;;;;;;;3.75;75.68;99622.10;103718;1319;137548;-87
2021/12/17 10:40:46;;;;;;;8.00;4.00;;;;;;;3.76;75.82;99617.52;103708;1320;22638;-86
2021/12/17 10:43:32;;;;;;;9.50;3.40;;;;;;;3.76;75.96;99621.56;103346;1320;22656;-87
2021/12/17 10:46:22;;;;;;;9.40;4.20;;;;;;;3.79;75.74;99612.13;103294;1319;137623;-88
2021/12/17 10:48:56;;;;;;;10.40;4.30;;;;;;;3.81;75.79;99608.14;103402;1323;23444;-87
2021/12/17 10:54:16;;;;;;;13.80;4.50;;;;;;;3.81;74.93;99617.67;103410;1323;30872;-86
2021/12/17 10:56:46;;;;;;;11.30;3.90;;;;;;;3.78;75.24;99612.73;103357;1317;137470;-85
2021/12/17 10:59:18;;;;;;;13.70;4.20;;;;;;;3.74;75.29;99612.81;103586;1324;22777;-86
2021/12/17 11:01:59;;;;;;;10.70;3.90;;;;;;;3.73;74.96;99620.19;103342;1319;22740;-87
2021/12/17 11:04:32;;;;;;;11.70;4.40;;;;;;;3.71;75.66;99612.61;103272;1322;138055;-86
2021/12/17 11:07:05;;;;;;;10.50;4.20;;;;;;;3.72;75.41;99613.39;103385;1320;22608;-85
2021/12/17 11:09:50;;;;;;;10.50;4.30;;;;;;;3.71;74.87;99607.42;103208;1322;137455;-86
2021/12/17 11:12:28;;;;;;;12.20;3.90;;;;;;;3.69;75.43;99601.91;103355;1318;22617;-85
2021/12/17 11:15:10;;;;;;;11.00;4.30;;;;;;;3.71;75.98;99611.93;103511;1323;137685;-85
2021/12/17 11:17:38;;;;;;;11.40;5.30;;;;;;;3.72;75.99;99600.88;103486;1321;22722;-87
2021/12/17 11:20:10;;;;;;;10.10;4.40;;;;;;;3.75;76.16;99595.70;103688;1319;137798;-85
2021/12/17 11:22:39;;;;;;;13.40;4.50;;;;;;;3.78;75.63;99602.37;103728;1319;22527;-86
2021/12/17 11:25:07;;;;;;;11.80;4.50;;;;;;;3.77;75.00;99596.33;103476;1318;22610;-85
2021/12/17 11:27:35;;;;;;;9.00;4.20;;;;;;;3.77;74.84;99599.26;103338;1320;138265;-84
2021/12/17 11:30:06;;;;;;;9.00;4.00;;;;;;;3.73;74.89;99598.37;103422;1318;22627;-86
2021/12/17 11:32:35;;;;;;;12.40;4.00;;;;;;;3.71;75.13;99599.04;103339;1323;137561;-85
2021/12/17 11:35:06;;;;;;;13.70;4.90;;;;;;;3.68;75.18;99598.30;103784;1323;22570;-86
2021/12/17 11:37:34;;;;;;;12.50;4.20;;;;;;;3.64;75.68;99602.34;103553;1317;22836;-86
2021/12/17 11:40:08;;;;;;;13.90;4.00;;;;;;;3.63;75.17;99606.98;103858;1318;138135;-86
2021/12/17 11:42:54;;;;;;;13.50;4.20;;;;;;;3.59;74.90;99603.17;103367;1320;23978;-87
2021/12/17 11:45:26;;;;;;;11.00;5.20;;;;;;;3.56;75.06;99599.05;103528;1318;137418;-86
2021/12/17 11:48:16;;;;;;;11.10;4.30;;;;;;;3.53;74.85;99600.45;103776;1321;25485;-86
2021/12/17 11:50:44;;;;;;;10.80;4.10;;;;;;;3.52;74.80;99594.98;103475;1323;139007;-86
2021/12/17 11:53:22;;;;;;;9.70;3.10;;;;;;;3.50;74.94;99600.40;103404;1319;25441;-86
2021/12/17 11:56:12;;;;;;;9.50;4.80;;;;;;;3.47;74.77;99595.02;103737;1322;31224;-87
2021/12/17 11:58:53;;;;;;;9.40;3.80;;;;;;;3.43;75.53;99589.67;103622;1319;137689;-87
2021/12/17 12:01:47;;;;;;;7.20;4.10;;;;;;;3.44;74.91;99585.92;103643;1320;22622;-86
2021/12/17 12:04:32;;;;;;;11.40;4.20;;;;;;;3.41;74.59;99585.44;103526;1319;137364;-87
2021/12/17 12:07:02;;;;;;;11.10;4.30;;;;;;;3.37;74.88;99587.20;103474;1323;27628;-87
2021/12/17 12:10:03;;;;;;;7.40;4.00;;;;;;;3.34;75.20;99590.33;104952;1318;199656;-87
2021/12/17 12:12:45;;;;;;;8.70;4.60;;;;;;;3.32;74.70;99588.66;103839;1318;22732;-86
2021/12/17 12:15:24;;;;;;;11.20;4.50;;;;;;;3.29;75.10;99581.55;103920;1320;137823;-86
2021/12/17 12:17:57;;;;;;;14.00;3.70;;;;;;;3.28;75.02;99582.77;103755;1319;24352;-85
2021/12/17 12:20:38;;;;;;;11.40;4.40;;;;;;;3.26;74.97;99577.65;103894;1322;138546;-85
2021/12/17 12:23:27;;;;;;;8.90;4.10;;;;;;;3.27;74.98;99575.59;104104;1316;23366;-85
2021/12/17 12:26:01;;;;;;;9.10;5.00;;;;;;;3.27;74.65;99576.94;103867;1319;22751;-84
2021/12/17 12:28:47;;;;;;;7.60;4.00;;;;;;;3.27;74.55;99579.85;103770;1319;137370;-86
2021/12/17 12:31:33;;;;;;;11.10;4.70;;;;;;;3.29;74.72;99582.02;104604;1323;22954;-86
2021/12/17 12:34:05;;;;;;;10.80;4.70;;;;;;;3.30;74.81;99583.34;103843;1316;138296;-85
2021/12/17 12:36:55;;;;;;;12.10;4.80;;;;;;;3.31;75.06;99589.66;103861;1324;30649;-84
2021/12/17 12:39:27;;;;;;;11.50;5.80;;;;;;;3.31;75.32;99597.50;103696;1321;137457;-85
2021/12/17 12:42:17;;;;;;;14.20;5.30;;;;;;;3.31;75.49;99593.03;103584;1321;24546;-86
2021/12/17 12:44:44;;;;;;;14.50;5.20;;;;;;;3.30;75.58;99587.77;103603;1317;139029;-84
2021/12/17 12:47:31;;;;;;;15.30;5.90;;;;;;;3.31;75.82;99584.28;103623;1316;25367;-83
2021/12/17 12:50:06;;;;;;;13.10;6.00;;;;;;;3.30;75.98;99585.95;103642;1322;22613;-85
2021/12/17 12:52:40;;;;;;;10.90;5.40;;;;;;;3.28;75.80;99588.96;103790;1320;137731;-85
2021/12/17 12:55:32;;;;;;;12.10;5.10;;;;;;;3.26;75.76;99586.60;103946;1319;22662;-85
2021/12/17 12:58:01;;;;;;;13.70;5.10;;;;;;;3.24;75.88;99593.23;103441;1319;138628;-86
2021/12/17 13:00:32;;;;;;;12.50;4.80;;;;;;;3.23;76.10;99585.66;103580;1324;23320;-85
2021/12/17 13:03:03;;;;;;;10.30;4.90;;;;;;;3.20;75.91;99576.14;103548;1319;137756;-86
2021/12/17 13:05:32;;;;;;;14.70;5.10;;;;;;;3.17;75.84;99580.92;103649;1323;24292;-86
2021/12/17 13:08:02;;;;;;;10.50;5.40;;;;;;;3.15;76.00;99586.91;103720;1319;22742;-86
2021/12/17 13:10:36;;;;;;;12.90;5.70;;;;;;;3.14;76.05;99584.86;103513;1318;137495;-85
2021/12/17 13:16:23;;;;;;;14.70;5.80;;;;;;;3.11;76.37;99585.87;103366;1324;138256;-88
2021/12/17 13:24:16;;;;;;;12.30;5.40;;;;;;;3.11;76.71;99576.59;103702;1319;22657;-86
2021/12/17 13:26:53;;;;;;;15.40;6.30;;;;;;;3.10;76.49;99570.06;103410;1319;138302;-85
2021/12/17 13:29:24;;;;;;;13.20;4.70;;;;;;;3.12;76.90;99580.63;103711;1324;22613;-84
2021/12/17 13:31:57;;;;;;;13.60;5.90;;;;;;;3.12;76.90;99582.95;103832;1319;25372;-85
2021/12/17 13:34:34;;;;;;;17.50;6.00;;;;;;;3.11;76.96;99574.77;103530;1319;137633;-91
2021/12/17 13:37:16;;;;;;;16.40;5.30;;;;;;;3.10;76.59;99576.69;103687;1319;24130;-86
2021/12/17 13:39:47;;;;;;;8.00;4.80;;;;;;;3.08;76.97;99587.93;103625;1319;137924;-85
2021/12/17 13:42:26;;;;;;;17.70;5.30;;;;;;;3.07;76.99;99590.55;103621;1320;22769;-84
2021/12/17 13:44:58;;;;;;;11.20;5.50;;;;;;;3.05;77.20;99587.12;103751;1319;138189;-85
2021/12/17 13:47:36;;;;;;;12.90;6.30;;;;;;;3.04;77.06;99590.48;103471;1323;22754;-88
2021/12/17 13:50:40;;;;;;;12.70;5.00;;;;;;;3.02;77.62;99594.73;103905;1323;24262;-85
2021/12/17 13:53:13;;;;;;;11.00;4.90;;;;;;;3.02;77.44;99584.93;103593;1323;22601;-83
2021/12/17 13:55:44;;;;;;;14.90;6.30;;;;;;;3.02;77.08;99588.23;103821;1322;22601;-86
2021/12/17 13:58:13;;;;;;;15.90;6.00;;;;;;;3.03;77.35;99594.45;103864;1319;137473;-86
2021/12/17 14:00:51;;;;;;;15.90;5.40;;;;;;;3.02;77.21;99597.45;103687;1319;22734;-85
2021/12/17 14:03:22;;;;;;;14.60;5.30;;;;;;;3.01;77.21;99590.59;103911;1319;138144;-85
2021/12/17 14:05:56;;;;;;;15.00;5.80;;;;;;;3.01;77.14;99595.02;103692;1319;22586;-84
2021/12/17 14:08:24;;;;;;;14.70;6.40;;;;;;;3.01;77.19;99591.25;103479;1318;30706;-85
2021/12/17 14:10:54;;;;;;;12.00;6.30;;;;;;;3.00;77.32;99585.27;103668;1324;137581;-84
2021/12/17 14:13:24;;;;;;;13.70;5.10;;;;;;;2.98;77.24;99590.52;103941;1322;22835;-84
2021/12/17 14:15:52;;;;;;;;;;;;;;;2.97;76.83;99582.07;103692;1319;138838;-85
2021/12/17 14:18:22;;;;;;;12.10;5.80;;;;;;;2.96;76.70;99581.81;103879;1319;25576;-85
2021/12/17 14:20:57;;;;;;;11.70;4.50;;;;;;;2.95;77.17;99585.31;103624;1323;137651;-87
2021/12/17 14:23:26;;;;;;;10.30;4.70;;;;;;;2.93;77.06;99592.88;103420;1319;25489;-84
2021/12/17 14:25:59;;;;;;;11.20;5.50;;;;;;;2.92;77.11;99588.16;103601;1319;23971;-85
2021/12/17 14:28:30;;;;;;;11.60;3.90;;;;;;;2.92;77.33;99586.73;103558;1320;138291;-84
2021/12/17 14:31:13;;;;;;;11.80;4.90;;;;;;;2.92;77.04;99589.41;103949;1318;22588;-85
2021/12/17 14:33:44;;;;;;;11.90;4.80;;;;;;;2.92;77.06;99590.08;103743;1316;137711;-85
2021/12/17 14:36:14;;;;;;;13.90;5.50;;;;;;;2.91;77.31;99577.34;103710;1318;25371;-85
2021/12/17 14:38:48;;;;;;;15.90;5.30;;;;;;;2.87;77.60;99572.34;103749;1322;22613;-86
2021/12/17 14:41:29;;;;;;;14.90;4.80;;;;;;;2.88;77.75;99576.29;103684;1319;137930;-85
2021/12/17 14:44:04;;;;;;;14.10;4.80;;;;;;;2.89;77.64;99585.65;103638;1318;22660;-86
2021/12/17 14:46:49;;;;;;;13.80;5.40;;;;;;;2.91;77.62;99589.38;103566;1323;138234;-81
2021/12/17 15:01:08;;;;;;;14.50;6.60;;;;;;;2.89;77.84;99595.86;103758;1319;25341;-87
2021/12/17 15:03:41;;;;;;;17.50;7.30;;;;;;;2.88;78.00;99598.83;103257;1319;138185;-86
2021/12/17 15:06:14;;;;;;;18.70;6.20;;;;;;;2.87;78.06;99589.27;103394;1324;22645;-89
2021/12/17 15:08:42;;;;;;;22.30;8.00;;;;;;;2.88;78.10;99596.85;103280;1323;23331;-87